Time;durP1;ratioP1;P1;durP2;ratioP2;P2;SDS_P1;SDS_P2;PMS_P1;PMS_P2;Temp;Humidity;BMP_temperature;BMP_pressure;BME280_temperature;BME280_humidity;BME280_pressure;Samples;Min_cycle;Max_cycle;Signal;HPM_P1;HPM_P2
2021/04/24 00:00:44;;;;;;;8.60;4.67;;;5.70;66.70;;;;;;5045553;28;20229;-84
2021/04/24 00:03:10;;;;;;;11.10;4.80;;;5.70;67.70;;;;;;5052562;28;20229;-84
2021/04/24 00:05:40;;;;;;;7.73;4.60;;;5.80;67.20;;;;;;5063019;28;20202;-84
2021/04/24 00:08:08;;;;;;;9.23;4.50;;;5.70;70.40;;;;;;5057769;28;20604;-84
2021/04/24 00:10:38;;;;;;;8.33;4.63;;;5.70;68.60;;;;;;5057205;28;20206;-85
2021/04/24 00:13:07;;;;;;;9.37;4.60;;;5.70;69.30;;;;;;5048980;28;20233;-83
2021/04/24 00:15:34;;;;;;;7.60;3.97;;;5.80;68.00;;;;;;5052808;28;20245;-85
2021/04/24 00:18:01;;;;;;;8.87;4.73;;;5.90;66.50;;;;;;5052758;28;20708;-85
2021/04/24 00:20:27;;;;;;;8.90;4.47;;;5.90;67.10;;;;;;5045192;28;20228;-83
2021/04/24 00:22:54;;;;;;;7.80;4.50;;;5.80;66.40;;;;;;5048816;28;20228;-88
2021/04/24 00:25:21;;;;;;;9.33;4.97;;;5.70;68.30;;;;;;5053602;28;20721;-84
2021/04/24 00:27:51;;;;;;;12.47;4.53;;;5.60;69.20;;;;;;5056221;28;20230;-84
2021/04/24 00:30:18;;;;;;;8.83;4.37;;;5.60;67.80;;;;;;5051999;28;20210;-83
2021/04/24 00:32:46;;;;;;;8.30;4.50;;;5.50;70.30;;;;;;5055248;28;20226;-83
2021/04/24 00:35:14;;;;;;;8.27;4.53;;;5.40;70.10;;;;;;5055129;28;20218;-84
2021/04/24 00:37:40;;;;;;;10.87;4.80;;;5.40;70.10;;;;;;5040791;28;20309;-83
2021/04/24 00:40:08;;;;;;;10.03;4.40;;;5.30;70.00;;;;;;5053039;28;20688;-83
2021/04/24 00:42:35;;;;;;;8.87;5.00;;;5.30;68.90;;;;;;5055533;28;20217;-83
2021/04/24 00:45:05;;;;;;;8.33;4.77;;;5.30;70.00;;;;;;5049787;28;20198;-84
2021/04/24 00:47:31;;;;;;;7.17;4.13;;;5.40;70.10;;;;;;5055688;28;20235;-85
2021/04/24 00:49:58;;;;;;;8.23;4.47;;;5.40;70.10;;;;;;5048325;28;20203;-83
2021/04/24 00:52:24;;;;;;;9.20;5.33;;;5.50;70.30;;;;;;5060612;28;20234;-84
2021/04/24 00:54:50;;;;;;;9.43;4.57;;;5.40;69.00;;;;;;5054072;28;20194;-83
2021/04/24 00:57:17;;;;;;;11.40;4.53;;;5.40;70.10;;;;;;5057674;28;20218;-83
2021/04/24 00:59:43;;;;;;;8.73;4.50;;;5.40;70.10;;;;;;5051789;28;20222;-83
2021/04/24 01:02:11;;;;;;;7.27;4.50;;;5.40;70.10;;;;;;5053820;28;20279;-87
2021/04/24 01:04:38;;;;;;;7.67;4.27;;;5.30;70.00;;;;;;5055778;28;20210;-82
2021/04/24 01:07:05;;;;;;;8.63;4.50;;;5.20;70.00;;;;;;5054942;28;20225;-86
2021/04/24 01:09:32;;;;;;;10.33;4.20;;;5.20;70.00;;;;;;5056167;28;20217;-83
2021/04/24 01:11:58;;;;;;;8.43;4.07;;;5.30;70.00;;;;;;5053657;28;20219;-84
2021/04/24 01:14:24;;;;;;;8.17;4.47;;;5.30;70.00;;;;;;5045598;28;20208;-83
2021/04/24 01:16:51;;;;;;;7.60;4.80;;;5.30;70.00;;;;;;5055878;28;20233;-84
2021/04/24 01:19:21;;;;;;;8.80;4.87;;;5.20;70.00;;;;;;5048090;28;20226;-83
2021/04/24 01:21:48;;;;;;;8.30;4.77;;;5.10;70.50;;;;;;5061940;28;20254;-83
2021/04/24 01:24:16;;;;;;;7.10;4.53;;;4.90;72.60;;;;;;5051982;28;20198;-84
2021/04/24 01:26:42;;;;;;;6.30;4.20;;;4.90;71.80;;;;;;5044470;28;20233;-83
2021/04/24 01:29:09;;;;;;;7.57;4.70;;;4.90;73.20;;;;;;5056472;28;20295;-83
2021/04/24 01:31:36;;;;;;;7.03;4.27;;;4.80;72.90;;;;;;5057466;28;20252;-83
2021/04/24 01:34:04;;;;;;;7.87;4.50;;;4.70;72.80;;;;;;5047736;28;20202;-83
2021/04/24 01:36:31;;;;;;;7.87;4.63;;;4.70;74.80;;;;;;5053130;28;20468;-85
2021/04/24 01:38:58;;;;;;;9.00;4.53;;;4.70;74.00;;;;;;5056386;28;20205;-86
2021/04/24 01:41:25;;;;;;;9.00;4.70;;;4.70;75.00;;;;;;5062338;28;20193;-83
2021/04/24 01:43:52;;;;;;;8.87;5.17;;;4.70;74.70;;;;;;5063666;28;21004;-83
2021/04/24 01:46:18;;;;;;;8.17;4.53;;;4.80;75.30;;;;;;5037563;28;20717;-83
2021/04/24 01:48:45;;;;;;;7.53;4.37;;;4.90;74.70;;;;;;5052536;28;20206;-83
2021/04/24 01:51:11;;;;;;;7.70;4.33;;;4.80;73.90;;;;;;5054248;28;20202;-84
2021/04/24 01:53:39;;;;;;;9.17;4.60;;;4.70;74.30;;;;;;5045339;28;20234;-83
2021/04/24 01:56:06;;;;;;;7.50;4.53;;;4.60;75.60;;;;;;5048125;28;20572;-84
2021/04/24 01:58:33;;;;;;;5.77;4.20;;;4.70;75.40;;;;;;5046608;28;20309;-86
2021/04/24 02:01:02;;;;;;;9.03;4.70;;;4.60;74.90;;;;;;5042766;28;20251;-84
2021/04/24 02:03:29;;;;;;;8.57;4.50;;;4.50;76.10;;;;;;5057881;28;20568;-83
2021/04/24 02:05:56;;;;;;;8.90;4.30;;;4.50;76.50;;;;;;5047012;28;20213;-83
2021/04/24 02:08:24;;;;;;;11.40;4.70;;;4.50;76.50;;;;;;5047830;28;20236;-85
2021/04/24 02:10:55;;;;;;;6.77;4.23;;;4.50;76.30;;;;;;5060403;28;20218;-87
2021/04/24 02:13:24;;;;;;;6.67;4.37;;;4.40;76.30;;;;;;5045153;28;20695;-83
2021/04/24 02:15:51;;;;;;;6.73;4.13;;;4.40;76.10;;;;;;5048914;28;20206;-83
2021/04/24 02:18:18;;;;;;;9.27;4.40;;;4.40;76.60;;;;;;5057780;28;20224;-83
2021/04/24 02:20:45;;;;;;;8.90;4.67;;;4.20;77.00;;;;;;5045672;28;20222;-88
2021/04/24 02:23:14;;;;;;;7.03;4.20;;;4.30;77.10;;;;;;5046055;28;20222;-83
2021/04/24 02:25:40;;;;;;;10.17;4.70;;;4.30;76.40;;;;;;5060713;28;20201;-83
2021/04/24 02:28:07;;;;;;;7.43;4.53;;;4.40;76.20;;;;;;5041404;28;20233;-83
2021/04/24 02:30:34;;;;;;;9.23;4.57;;;4.30;76.30;;;;;;5048715;28;20592;-83
2021/04/24 02:33:02;;;;;;;8.73;4.63;;;4.20;77.20;;;;;;5044091;28;20233;-83
2021/04/24 02:35:39;;;;;;;8.50;4.60;;;4.00;77.70;;;;;;5047721;28;20199;-86
2021/04/24 02:38:06;;;;;;;11.37;4.80;;;4.00;79.00;;;;;;5042915;28;20596;-83
2021/04/24 02:40:32;;;;;;;10.23;4.70;;;4.00;79.30;;;;;;5054886;28;20237;-85
2021/04/24 02:42:59;;;;;;;8.17;4.30;;;4.00;79.60;;;;;;5059891;28;20236;-83
2021/04/24 02:45:25;;;;;;;7.17;4.50;;;4.10;78.60;;;;;;5043812;28;20205;-84
2021/04/24 02:47:52;;;;;;;9.43;4.73;;;4.10;78.30;;;;;;5064946;28;20231;-84
2021/04/24 02:50:21;;;;;;;9.47;4.43;;;4.10;78.00;;;;;;5049460;28;20636;-83
2021/04/24 02:52:48;;;;;;;8.73;4.43;;;4.10;78.10;;;;;;5044660;28;20284;-83
2021/04/24 02:55:17;;;;;;;6.63;4.10;;;4.10;78.50;;;;;;5056249;28;20202;-83
2021/04/24 02:57:44;;;;;;;10.10;4.70;;;4.10;78.10;;;;;;5053961;28;20226;-84
2021/04/24 03:00:15;;;;;;;10.93;5.20;;;4.10;78.40;;;;;;5051833;28;20218;-83
2021/04/24 03:02:41;;;;;;;10.13;4.80;;;3.90;78.60;;;;;;5057217;28;20229;-84
2021/04/24 03:05:10;;;;;;;9.00;5.07;;;3.80;79.70;;;;;;5053724;28;20572;-83
2021/04/24 03:07:38;;;;;;;7.13;4.60;;;3.80;79.70;;;;;;5055357;28;20222;-83
2021/04/24 03:10:07;;;;;;;11.67;4.90;;;3.80;79.60;;;;;;5056051;28;20198;-85
2021/04/24 03:12:33;;;;;;;7.53;4.77;;;3.60;80.30;;;;;;5046712;28;20572;-83
2021/04/24 03:15:00;;;;;;;8.70;4.30;;;3.60;80.60;;;;;;5051620;28;20194;-83
2021/04/24 03:17:26;;;;;;;13.83;4.77;;;3.60;81.30;;;;;;5052553;28;20214;-83
2021/04/24 03:19:52;;;;;;;8.27;4.77;;;3.60;80.60;;;;;;5054417;28;20703;-87
2021/04/24 03:22:19;;;;;;;10.43;4.53;;;3.60;81.00;;;;;;5053329;28;20685;-83
2021/04/24 03:24:46;;;;;;;8.10;4.37;;;3.60;81.20;;;;;;5055568;28;20206;-84
2021/04/24 03:27:12;;;;;;;9.47;4.50;;;3.60;80.30;;;;;;5052644;28;20228;-83
2021/04/24 03:29:38;;;;;;;9.83;4.30;;;3.60;79.80;;;;;;5048703;28;20632;-85
2021/04/24 03:32:06;;;;;;;8.00;4.67;;;3.60;81.00;;;;;;5052452;28;20234;-83
2021/04/24 03:34:32;;;;;;;7.20;4.40;;;3.60;79.70;;;;;;5051697;28;20212;-83
2021/04/24 03:36:58;;;;;;;6.50;4.57;;;3.50;79.50;;;;;;5048868;28;20591;-85
2021/04/24 03:39:25;;;;;;;10.33;5.00;;;3.40;80.80;;;;;;5050213;28;20225;-83
2021/04/24 03:41:52;;;;;;;8.70;4.63;;;3.30;80.20;;;;;;5049780;28;20233;-83
2021/04/24 03:44:18;;;;;;;8.67;4.03;;;3.30;80.90;;;;;;5052490;28;20202;-83
2021/04/24 03:46:45;;;;;;;6.83;4.30;;;3.30;80.50;;;;;;5058565;28;20221;-83
2021/04/24 03:49:11;;;;;;;8.40;4.97;;;3.40;80.50;;;;;;5067805;28;20276;-83
2021/04/24 03:51:37;;;;;;;6.47;4.10;;;3.50;80.20;;;;;;5054563;28;20233;-83
2021/04/24 03:54:05;;;;;;;8.67;4.33;;;3.50;80.20;;;;;;5046884;28;20393;-83
2021/04/24 03:56:32;;;;;;;8.80;4.87;;;3.40;81.40;;;;;;5053970;28;20571;-83
2021/04/24 03:58:59;;;;;;;7.43;4.90;;;3.30;81.10;;;;;;5052193;28;20206;-83
2021/04/24 04:01:25;;;;;;;7.47;4.60;;;3.20;81.80;;;;;;5056397;28;20198;-84
2021/04/24 04:03:51;;;;;;;7.50;4.90;;;3.20;81.80;;;;;;5050762;28;20558;-83
2021/04/24 04:06:18;;;;;;;8.80;4.83;;;3.30;81.80;;;;;;5057458;28;20205;-83
2021/04/24 04:08:44;;;;;;;8.70;4.53;;;3.30;81.80;;;;;;5054460;28;20209;-83
2021/04/24 04:11:10;;;;;;;7.27;4.53;;;3.30;82.00;;;;;;5047879;28;20215;-83
2021/04/24 04:13:37;;;;;;;9.10;4.80;;;3.30;81.50;;;;;;5050453;28;20428;-83
2021/04/24 04:16:04;;;;;;;7.40;4.37;;;3.30;81.70;;;;;;5052362;28;20684;-85
2021/04/24 04:18:35;;;;;;;6.60;4.83;;;3.30;81.50;;;;;;5053239;28;20237;-83
2021/04/24 04:21:03;;;;;;;12.20;5.00;;;3.20;81.20;;;;;;5054459;28;20226;-86
2021/04/24 04:23:29;;;;;;;9.60;4.30;;;3.20;82.20;;;;;;5046773;28;20768;-85
2021/04/24 04:25:56;;;;;;;7.93;4.60;;;3.20;81.80;;;;;;5055324;28;20205;-88
2021/04/24 04:28:23;;;;;;;6.73;4.30;;;3.20;82.00;;;;;;5063600;28;20220;-83
2021/04/24 04:30:50;;;;;;;6.27;4.00;;;3.30;82.40;;;;;;5058219;28;20204;-83
2021/04/24 04:33:26;;;;;;;7.03;3.70;;;3.40;81.70;;;;;;5053943;28;20229;-83
2021/04/24 04:35:52;;;;;;;9.40;4.30;;;3.40;81.00;;;;;;5057184;28;20227;-85
2021/04/24 04:38:19;;;;;;;7.83;4.23;;;3.50;80.80;;;;;;5053029;28;20253;-82
2021/04/24 04:40:46;;;;;;;9.97;4.40;;;3.50;80.60;;;;;;5056877;28;20226;-82
2021/04/24 04:43:14;;;;;;;6.87;3.97;;;3.50;80.40;;;;;;5057756;28;20224;-85
2021/04/24 04:45:40;;;;;;;6.97;3.83;;;3.50;80.80;;;;;;5054449;28;20194;-82
2021/04/24 04:48:07;;;;;;;7.40;3.90;;;3.50;80.80;;;;;;5067158;28;20753;-83
2021/04/24 04:50:37;;;;;;;7.67;4.07;;;3.60;81.60;;;;;;5056729;28;20209;-85
2021/04/24 04:53:03;;;;;;;5.80;3.90;;;3.60;80.90;;;;;;5060633;28;20239;-83
2021/04/24 04:55:30;;;;;;;6.50;4.10;;;3.60;81.20;;;;;;5061013;28;20204;-83
2021/04/24 04:57:56;;;;;;;7.27;3.97;;;3.60;81.00;;;;;;5054176;28;20221;-86
2021/04/24 05:00:24;;;;;;;7.33;4.53;;;3.60;81.40;;;;;;5045158;28;20229;-83
2021/04/24 05:02:51;;;;;;;7.73;4.33;;;3.60;81.90;;;;;;5049095;28;20228;-83
2021/04/24 05:05:18;;;;;;;8.40;4.33;;;3.60;81.60;;;;;;5049416;28;20204;-86
2021/04/24 05:07:46;;;;;;;8.87;4.53;;;3.70;81.40;;;;;;5047081;28;20226;-83
2021/04/24 05:10:13;;;;;;;7.87;4.43;;;3.90;81.00;;;;;;5048306;28;20202;-82
2021/04/24 05:12:39;;;;;;;9.70;4.50;;;4.10;79.90;;;;;;5052268;28;20708;-85
2021/04/24 05:15:06;;;;;;;7.63;4.67;;;4.20;80.00;;;;;;5052299;28;20202;-83
2021/04/24 05:17:33;;;;;;;8.30;4.83;;;4.40;79.40;;;;;;5050061;28;20308;-82
2021/04/24 05:19:59;;;;;;;7.27;4.07;;;4.50;78.70;;;;;;5045863;28;20218;-85
2021/04/24 05:22:25;;;;;;;8.07;4.30;;;4.60;78.10;;;;;;5046904;28;20222;-83
2021/04/24 05:24:52;;;;;;;6.50;4.37;;;4.70;78.30;;;;;;5047101;28;20207;-84
2021/04/24 05:27:19;;;;;;;7.37;4.30;;;4.90;77.40;;;;;;5053464;28;20245;-83
2021/04/24 05:29:45;;;;;;;11.10;4.33;;;4.90;76.80;;;;;;5050218;28;20198;-83
2021/04/24 05:32:11;;;;;;;7.20;4.37;;;5.10;76.70;;;;;;5053544;28;20744;-84
2021/04/24 05:34:37;;;;;;;14.33;4.70;;;5.20;76.80;;;;;;5054514;28;20202;-83
2021/04/24 05:37:04;;;;;;;7.97;5.00;;;5.30;77.50;;;;;;5048055;28;20268;-84
2021/04/24 05:39:30;;;;;;;9.27;4.90;;;5.50;76.60;;;;;;5041597;28;20214;-83
2021/04/24 05:41:58;;;;;;;13.00;4.60;;;5.70;76.30;;;;;;5047858;28;20229;-86
2021/04/24 05:44:24;;;;;;;7.87;4.33;;;6.50;72.80;;;;;;5061160;28;20201;-87
2021/04/24 05:46:50;;;;;;;11.33;5.07;;;7.50;66.90;;;;;;5054773;28;20225;-86
2021/04/24 05:49:17;;;;;;;8.97;4.73;;;8.50;63.30;;;;;;5059429;28;20190;-86
2021/04/24 05:51:43;;;;;;;8.55;4.57;;;9.60;57.20;;;;;;5059414;28;20225;-86
2021/04/24 06:05:16;;;;;;;7.97;4.35;;;12.40;40.70;;;;;;5058123;28;20185;-87
2021/04/24 06:07:44;;;;;;;8.50;4.65;;;12.50;39.20;;;;;;5064107;28;20200;-87
2021/04/24 06:10:12;;;;;;;9.18;5.07;;;12.50;38.40;;;;;;5058981;28;20588;-86
2021/04/24 06:16:32;;;;;;;6.25;4.38;;;12.40;39.30;;;;;;5059963;28;20194;-88
2021/04/24 06:18:58;;;;;;;8.43;4.53;;;13.00;35.80;;;;;;5055587;28;20257;-87
2021/04/24 06:21:24;;;;;;;6.20;3.85;;;13.50;35.10;;;;;;5063639;28;20665;-88
2021/04/24 06:23:52;;;;;;;5.80;3.22;;;13.70;34.50;;;;;;5038225;28;20223;-89
2021/04/24 06:26:18;;;;;;;8.48;3.63;;;13.60;33.10;;;;;;5053728;28;20210;-89
2021/04/24 06:28:44;;;;;;;6.57;3.58;;;14.10;30.70;;;;;;5053179;28;20289;-89
2021/04/24 06:31:11;;;;;;;6.45;3.90;;;14.20;29.60;;;;;;5050140;28;20255;-89
2021/04/24 06:33:38;;;;;;;6.30;3.80;;;14.40;30.30;;;;;;5056112;28;20256;-88
2021/04/24 06:39:43;;;;;;;7.55;3.97;;;13.70;30.00;;;;;;5084672;28;20234;-88
2021/04/24 06:52:57;;;;;;;9.65;5.35;;;13.90;31.90;;;;;;5045980;28;20222;-88
2021/04/24 06:58:50;;;;;;;10.50;5.45;;;13.70;32.10;;;;;;5044145;28;20677;-88
2021/04/24 07:01:17;;;;;;;12.18;5.22;;;13.60;32.10;;;;;;5044358;28;20606;-88
2021/04/24 07:03:43;;;;;;;10.82;5.40;;;13.60;33.70;;;;;;5044322;28;20202;-88
2021/04/24 07:06:10;;;;;;;13.05;5.70;;;13.90;32.90;;;;;;5051421;28;20202;-88
2021/04/24 07:08:36;;;;;;;10.20;5.57;;;14.50;29.50;;;;;;5067077;28;20228;-88
2021/04/24 07:11:03;;;;;;;12.98;5.47;;;14.40;28.90;;;;;;5073642;28;20201;-88
2021/04/24 07:13:29;;;;;;;13.23;6.05;;;14.70;31.20;;;;;;5062240;28;20229;-88
2021/04/24 07:16:02;;;;;;;22.23;6.35;;;14.40;29.90;;;;;;5064292;28;20202;-88
2021/04/24 07:18:28;;;;;;;12.60;6.47;;;14.00;30.70;;;;;;5068391;28;20289;-88
2021/04/24 07:21:08;;;;;;;10.55;6.32;;;13.80;33.90;;;;;;5064786;28;20222;-87
2021/04/24 07:23:36;;;;;;;10.68;6.22;;;13.80;31.70;;;;;;5044570;28;20206;-87
2021/04/24 07:26:02;;;;;;;10.95;6.13;;;13.70;30.60;;;;;;5044284;28;20207;-88
2021/04/24 07:28:44;;;;;;;10.88;6.18;;;13.80;31.30;;;;;;5044570;28;20739;-88
2021/04/24 07:36:18;;;;;;;14.40;7.07;;;14.50;29.00;;;;;;5054713;28;20511;-90
2021/04/24 07:38:44;;;;;;;8.48;5.95;;;15.20;28.00;;;;;;5053570;28;20625;-89
2021/04/24 07:41:11;;;;;;;10.38;6.35;;;15.40;28.20;;;;;;5057245;28;20232;-88
2021/04/24 07:43:38;;;;;;;12.55;6.40;;;15.30;29.70;;;;;;5046075;28;20230;-92
2021/04/24 07:46:04;;;;;;;9.35;6.43;;;15.30;28.10;;;;;;5042556;28;20214;-93
2021/04/24 07:48:31;;;;;;;11.65;6.15;;;15.20;28.00;;;;;;5059093;28;20237;-94
2021/04/24 07:50:57;;;;;;;11.98;7.10;;;15.00;27.90;;;;;;5055519;28;20202;-93
2021/04/24 07:53:25;;;;;;;11.57;6.85;;;15.00;27.80;;;;;;5047159;28;20233;-93
2021/04/24 07:55:51;;;;;;;11.52;7.20;;;14.80;27.70;;;;;;5054887;28;20218;-93
2021/04/24 07:58:18;;;;;;;15.50;7.00;;;14.80;29.60;;;;;;5052424;28;20233;-93
2021/04/24 08:00:46;;;;;;;12.55;6.50;;;14.90;28.30;;;;;;5061346;28;20272;-89
2021/04/24 08:03:12;;;;;;;13.63;6.68;;;15.00;27.80;;;;;;5055109;28;20250;-92
2021/04/24 08:05:38;;;;;;;10.07;6.40;;;14.90;27.70;;;;;;5060897;28;20201;-90
2021/04/24 08:08:05;;;;;;;12.30;6.38;;;15.10;28.00;;;;;;5061259;28;20300;-89
2021/04/24 08:11:03;;;;;;;9.93;6.28;;;15.30;26.80;;;;;;5065000;28;20206;-93
2021/04/24 08:13:29;;;;;;;12.45;6.68;;;15.10;28.00;;;;;;5058772;28;20226;-92
2021/04/24 08:15:55;;;;;;;10.05;6.30;;;14.80;27.70;;;;;;5068040;28;20209;-91
2021/04/24 08:18:22;;;;;;;13.95;6.63;;;14.80;27.70;;;;;;5066005;28;20226;-91
2021/04/24 08:20:48;;;;;;;13.57;6.72;;;14.90;27.80;;;;;;5060497;28;20232;-90
2021/04/24 08:23:14;;;;;;;15.50;6.63;;;15.00;29.00;;;;;;5060645;28;20225;-92
2021/04/24 08:25:41;;;;;;;11.68;6.18;;;15.30;28.10;;;;;;5063495;28;20625;-88
2021/04/24 08:28:08;;;;;;;12.10;6.65;;;15.70;26.00;;;;;;5084880;28;20296;-90
2021/04/24 08:30:34;;;;;;;11.80;6.60;;;16.10;26.00;;;;;;5052051;28;20237;-86
2021/04/24 08:33:02;;;;;;;9.57;6.40;;;16.00;27.90;;;;;;5135571;22;20235;-88
2021/04/24 08:36:17;;;;;;;9.18;6.43;;;16.30;23.50;;;;;;5097931;28;20200;-87
2021/04/24 08:42:36;;;;;;;11.77;6.45;;;17.30;22.20;;;;;;5066686;28;20221;-87
2021/04/24 08:45:14;;;;;;;10.30;6.70;;;18.10;20.00;;;;;;5076372;28;20227;-91
2021/04/24 08:47:43;;;;;;;12.43;6.65;;;18.10;21.00;;;;;;5081717;28;20217;-86
2021/04/24 08:50:12;;;;;;;9.70;6.22;;;18.60;20.10;;;;;;5077059;28;20213;-87
2021/04/24 08:52:40;;;;;;;10.52;6.13;;;19.30;18.90;;;;;;5084571;28;20258;-87
2021/04/24 08:55:08;;;;;;;10.13;6.82;;;19.60;17.60;;;;;;5079951;28;20209;-87
2021/04/24 08:57:36;;;;;;;7.90;6.20;;;19.50;18.30;;;;;;5072028;28;20552;-88
2021/04/24 09:00:06;;;;;;;9.23;6.53;;;20.70;15.20;;;;;;5077629;28;20209;-86
2021/04/24 09:02:32;;;;;;;9.68;6.40;;;22.10;15.70;;;;;;5078194;28;20609;-88
2021/04/24 09:04:59;;;;;;;11.98;7.03;;;23.60;13.30;;;;;;5078124;28;20254;-89
2021/04/24 09:07:26;;;;;;;11.25;6.85;;;24.50;13.90;;;;;;5071565;28;20216;-84
2021/04/24 09:09:57;;;;;;;10.50;7.07;;;25.80;13.40;;;;;;5070166;28;20205;-84
2021/04/24 09:12:37;;;;;;;8.48;5.88;;;25.80;11.50;;;;;;5075072;28;20221;-86
2021/04/24 09:15:17;;;;;;;10.25;6.47;;;26.50;10.60;;;;;;5070105;28;20205;-89
2021/04/24 09:17:48;;;;;;;8.68;6.68;;;25.50;10.60;;;;;;5067631;28;20216;-88
2021/04/24 09:20:16;;;;;;;9.90;6.60;;;25.20;12.40;;;;;;5068133;28;20337;-87
2021/04/24 09:22:42;;;;;;;9.82;7.07;;;26.90;10.80;;;;;;5062253;28;20233;-88
2021/04/24 09:25:09;;;;;;;8.38;7.22;;;28.40;8.50;;;;;;5064866;28;20209;-89
2021/04/24 09:27:44;;;;;;;8.50;7.45;;;27.80;8.50;;;;;;5056414;28;20282;-89
2021/04/24 09:30:17;;;;;;;8.30;7.05;;;27.00;9.10;;;;;;5065391;28;20200;-89
2021/04/24 09:32:44;;;;;;;7.13;6.40;;;27.60;8.90;;;;;;5060823;28;20289;-89
2021/04/24 09:35:14;;;;;;;9.48;6.65;;;26.90;8.10;;;;;;5048203;28;20205;-91
2021/04/24 09:37:40;;;;;;;8.75;6.72;;;28.00;8.40;;;;;;5050957;28;20217;-89
2021/04/24 09:40:11;;;;;;;9.90;7.30;;;28.10;7.90;;;;;;5051263;28;20225;-90
2021/04/24 09:42:40;;;;;;;9.93;7.47;;;28.20;8.40;;;;;;5045093;28;20584;-89
2021/04/24 09:45:26;;;;;;;9.70;8.27;;;28.80;9.10;;;;;;5045738;28;20202;-93
2021/04/24 09:47:54;;;;;;;8.70;7.80;;;29.60;7.20;;;;;;5050706;28;20696;-89
2021/04/24 09:50:22;;;;;;;8.38;7.35;;;29.10;8.00;;;;;;5056271;28;20208;-89
2021/04/24 09:52:49;;;;;;;8.52;7.47;;;28.80;7.70;;;;;;5051184;28;20700;-91
2021/04/24 09:55:34;;;;;;;8.82;7.82;;;28.30;9.10;;;;;;5050699;28;20602;-89
2021/04/24 09:58:01;;;;;;;12.18;7.43;;;27.80;8.80;;;;;;5038479;28;20225;-90
2021/04/24 10:00:30;;;;;;;10.40;6.90;;;27.00;10.40;;;;;;5040052;28;20583;-90
2021/04/24 10:02:57;;;;;;;9.63;7.68;;;27.10;9.40;;;;;;5042189;28;20267;-89
2021/04/24 10:05:24;;;;;;;7.97;7.18;;;27.40;8.80;;;;;;5051003;28;20293;-90
2021/04/24 10:07:52;;;;;;;9.85;7.90;;;27.70;9.90;;;;;;5060107;28;20221;-88
2021/04/24 10:10:39;;;;;;;9.88;7.68;;;26.00;10.10;;;;;;5051792;28;20272;-89
2021/04/24 10:13:07;;;;;;;13.13;7.60;;;26.80;9.40;;;;;;5052630;28;20296;-90
2021/04/24 10:15:39;;;;;;;10.73;7.47;;;26.90;9.60;;;;;;5053390;28;20676;-90
2021/04/24 10:18:13;;;;;;;8.63;7.68;;;26.60;10.70;;;;;;5061555;28;20228;-91
2021/04/24 10:20:43;;;;;;;9.80;7.22;;;27.60;11.00;;;;;;5050452;28;20221;-91
2021/04/24 10:23:11;;;;;;;11.60;7.72;;;27.40;10.40;;;;;;5056237;28;20252;-88
2021/04/24 10:25:41;;;;;;;7.97;7.18;;;27.60;8.80;;;;;;5061086;28;20205;-87
2021/04/24 10:28:08;;;;;;;9.32;7.90;;;28.60;10.40;;;;;;5060462;28;20218;-89
2021/04/24 10:30:34;;;;;;;9.13;8.05;;;27.80;10.10;;;;;;5060129;28;20190;-88
2021/04/24 10:33:05;;;;;;;9.30;7.95;;;28.40;8.30;;;;;;5061792;28;20224;-88
2021/04/24 10:35:32;;;;;;;11.98;8.70;;;28.60;7.20;;;;;;5055324;28;20235;-86
2021/04/24 10:38:31;;;;;;;20.38;16.48;;;28.10;8.70;;;;;;5062904;28;20273;-87
2021/04/24 10:40:58;;;;;;;9.18;7.15;;;26.40;9.90;;;;;;5059798;28;20221;-88
2021/04/24 10:43:24;;;;;;;10.60;7.40;;;26.00;8.90;;;;;;5053416;28;20221;-86
2021/04/24 10:46:16;;;;;;;11.95;9.40;;;25.30;10.40;;;;;;5050591;28;20212;-88
2021/04/24 10:48:43;;;;;;;12.70;11.40;;;26.00;11.00;;;;;;5052084;28;20227;-85
2021/04/24 10:51:09;;;;;;;19.70;17.23;;;25.10;11.50;;;;;;5061661;28;20201;-85
2021/04/24 10:53:36;;;;;;;57.00;51.38;;;24.10;11.90;;;;;;5057694;28;20225;-84
2021/04/24 10:56:02;;;;;;;66.93;60.50;;;25.00;12.70;;;;;;5060493;28;20225;-85
2021/04/24 10:58:32;;;;;;;15.02;13.48;;;25.80;11.30;;;;;;5049932;28;20577;-85
2021/04/24 11:01:00;;;;;;;123.90;112.13;;;26.30;12.00;;;;;;5047320;28;20228;-85
2021/04/24 11:03:40;;;;;;;9.45;7.97;;;25.60;12.30;;;;;;5051780;28;20229;-83
2021/04/24 11:06:14;;;;;;;16.25;14.27;;;24.80;12.40;;;;;;5053706;28;20205;-86
2021/04/24 11:08:41;;;;;;;9.77;7.75;;;23.80;13.40;;;;;;5058024;28;20301;-82
2021/04/24 11:11:10;;;;;;;10.52;9.15;;;23.20;14.70;;;;;;5060087;28;20213;-87
2021/04/24 11:13:39;;;;;;;10.00;7.70;;;22.80;12.80;;;;;;5066243;28;20218;-86
2021/04/24 11:16:08;;;;;;;11.48;7.97;;;21.90;13.70;;;;;;5059939;28;20301;-86
2021/04/24 11:18:36;;;;;;;11.38;9.45;;;21.70;13.60;;;;;;5061807;28;20284;-87
2021/04/24 11:21:05;;;;;;;14.45;8.65;;;20.70;14.90;;;;;;5061171;28;20244;-89
2021/04/24 11:23:53;;;;;;;10.00;7.32;;;20.60;14.60;;;;;;5075716;28;20291;-88
2021/04/24 11:26:46;;;;;;;9.27;7.25;;;20.40;15.20;;;;;;5066463;28;20252;-87
2021/04/24 11:29:14;;;;;;;13.05;7.60;;;20.40;14.90;;;;;;5059122;28;20206;-87
2021/04/24 11:32:01;;;;;;;12.77;7.28;;;20.10;14.80;;;;;;5064612;28;20260;-86
2021/04/24 11:37:48;;;;;;;9.43;7.28;;;19.70;17.70;;;;;;5053619;28;20251;-87
2021/04/24 11:40:22;;;;;;;10.57;6.72;;;19.70;17.60;;;;;;5062058;28;20299;-87
2021/04/24 11:43:28;;;;;;;40.47;30.63;;;19.80;15.80;;;;;;5058725;28;20225;-87
2021/04/24 11:46:04;;;;;;;10.27;7.80;;;19.50;17.80;;;;;;5062306;28;20211;-89
2021/04/24 11:49:05;;;;;;;52.85;43.45;;;19.70;15.30;;;;;;5062142;28;20280;-89
2021/04/24 11:51:40;;;;;;;15.95;12.10;;;20.00;16.50;;;;;;5074139;28;20209;-86
2021/04/24 11:54:16;;;;;;;22.08;17.33;;;20.00;15.70;;;;;;5059333;28;20204;-87
2021/04/24 11:56:48;;;;;;;17.15;9.38;;;19.90;15.90;;;;;;5059740;28;20217;-88
2021/04/24 11:59:32;;;;;;;11.07;7.72;;;20.10;17.30;;;;;;5059625;28;20202;-88
2021/04/24 12:02:11;;;;;;;12.25;9.75;;;19.90;19.40;;;;;;5048154;28;20229;-85
2021/04/24 12:04:38;;;;;;;8.45;7.32;;;19.80;16.80;;;;;;5055920;28;20194;-86
2021/04/24 12:07:07;;;;;;;9.35;7.95;;;19.40;15.10;;;;;;5050717;28;20234;-86
2021/04/24 12:09:51;;;;;;;9.65;7.82;;;19.70;14.80;;;;;;5052830;28;20202;-88
2021/04/24 12:12:38;;;;;;;12.05;7.25;;;19.80;14.90;;;;;;5050450;28;20221;-92
2021/04/24 12:15:07;;;;;;;10.90;8.13;;;19.70;15.10;;;;;;5052628;28;20768;-89
2021/04/24 12:17:34;;;;;;;11.02;7.28;;;19.70;14.60;;;;;;5059726;28;20222;-86
2021/04/24 12:20:00;;;;;;;11.77;7.50;;;19.40;15.30;;;;;;5064265;28;20222;-86
2021/04/24 12:22:27;;;;;;;10.00;7.43;;;19.40;17.30;;;;;;5055915;28;20708;-86
2021/04/24 12:25:03;;;;;;;10.75;7.55;;;19.40;16.00;;;;;;5053547;28;20228;-86
2021/04/24 12:27:39;;;;;;;11.20;6.82;;;19.20;15.80;;;;;;5044084;28;20230;-85
2021/04/24 12:30:12;;;;;;;9.48;7.18;;;19.10;15.50;;;;;;5052492;28;20205;-85
2021/04/24 12:32:40;;;;;;;9.02;7.00;;;19.20;15.70;;;;;;5046767;28;20218;-87
2021/04/24 12:35:31;;;;;;;9.30;6.65;;;19.30;16.00;;;;;;5047412;28;20190;-87
2021/04/24 12:38:01;;;;;;;9.80;7.00;;;19.40;16.20;;;;;;5047177;28;20622;-90
2021/04/24 12:40:30;;;;;;;9.95;6.68;;;19.50;14.90;;;;;;5050385;28;20328;-85
2021/04/24 12:43:06;;;;;;;9.38;7.22;;;19.50;14.50;;;;;;5051203;28;20214;-90
2021/04/24 12:45:34;;;;;;;8.88;6.40;;;19.60;13.80;;;;;;5065586;28;20207;-86
2021/04/24 12:48:01;;;;;;;8.85;6.65;;;19.70;14.60;;;;;;5055310;28;20244;-88
2021/04/24 12:50:29;;;;;;;10.50;6.13;;;19.40;13.20;;;;;;5061722;28;20198;-86
2021/04/24 12:53:00;;;;;;;9.30;6.68;;;19.40;15.70;;;;;;5052421;28;20239;-89
2021/04/24 12:55:35;;;;;;;8.90;6.25;;;19.20;15.30;;;;;;5052952;28;20213;-86
2021/04/24 12:58:05;;;;;;;10.27;6.20;;;19.30;14.10;;;;;;5051567;28;20268;-84
2021/04/24 13:00:39;;;;;;;9.43;6.15;;;19.30;13.80;;;;;;5053896;28;20222;-84
2021/04/24 13:03:23;;;;;;;11.10;7.40;;;19.40;16.50;;;;;;5051780;28;20248;-89
2021/04/24 13:05:50;;;;;;;8.52;6.35;;;19.30;14.00;;;;;;5037446;28;20202;-85
2021/04/24 13:08:18;;;;;;;12.20;7.30;;;19.50;15.40;;;;;;5060247;28;20237;-89
2021/04/24 13:10:45;;;;;;;10.50;6.97;;;19.40;15.00;;;;;;5060192;28;20201;-90
2021/04/24 13:13:23;;;;;;;9.48;6.82;;;19.40;14.60;;;;;;5041981;28;20217;-86
2021/04/24 13:15:50;;;;;;;7.68;6.15;;;19.50;14.00;;;;;;5040998;28;20198;-86
2021/04/24 13:18:27;;;;;;;9.80;6.28;;;19.50;15.10;;;;;;5051782;28;20218;-85
2021/04/24 13:20:54;;;;;;;8.27;6.68;;;19.40;14.10;;;;;;5057264;28;20276;-88
2021/04/24 13:23:21;;;;;;;10.68;6.13;;;19.20;15.30;;;;;;5052223;28;20217;-87
2021/04/24 13:25:48;;;;;;;12.85;6.68;;;19.20;15.30;;;;;;5059062;28;20206;-88
2021/04/24 13:28:28;;;;;;;8.13;6.10;;;19.00;14.90;;;;;;5038777;28;20361;-87
2021/04/24 13:30:58;;;;;;;8.40;6.45;;;18.80;14.50;;;;;;5057342;28;20202;-85
2021/04/24 13:33:36;;;;;;;8.23;5.38;;;18.80;14.20;;;;;;5057927;28;20248;-84
2021/04/24 13:36:03;;;;;;;10.10;6.30;;;19.00;15.20;;;;;;5048857;28;20283;-86
2021/04/24 13:38:33;;;;;;;7.93;5.80;;;19.20;13.90;;;;;;5057347;28;20685;-86
2021/04/24 13:41:18;;;;;;;8.65;6.07;;;19.30;14.80;;;;;;5065660;28;20241;-88
2021/04/24 13:43:45;;;;;;;9.95;6.30;;;19.20;15.20;;;;;;5056984;28;20230;-88